createdAt,value
2017-12-12T00:00:20.763Z,915
2017-12-12T00:01:25.441Z,915
2017-12-12T00:02:28.620Z,911.7
2017-12-12T00:03:35.267Z,915.8
2017-12-12T00:04:44.403Z,915.9
2017-12-12T00:05:47.893Z,915
2017-12-12T00:06:51.364Z,915.1
2017-12-12T00:07:57.874Z,915
2017-12-12T00:09:01.520Z,915.1
2017-12-12T00:10:04.851Z,915.9
2017-12-12T00:11:10.477Z,915.2
2017-12-12T00:12:16.171Z,915.2
2017-12-12T00:13:19.634Z,915.1
2017-12-12T00:14:22.962Z,915.2
2017-12-12T00:15:30.268Z,915.2
2017-12-12T00:16:33.868Z,915.2
2017-12-12T00:17:38.133Z,915.2
2017-12-12T00:18:41.054Z,915.2
2017-12-12T00:19:44.514Z,915.3
2017-12-12T00:21:11.309Z,912.1
2017-12-12T00:22:14.843Z,915.4
2017-12-12T00:23:20.399Z,915.5
2017-12-12T00:24:23.935Z,915.6
2017-12-12T00:25:27.354Z,916.4
2017-12-12T00:26:34.106Z,915.7
2017-12-12T00:27:37.425Z,916.5
2017-12-12T00:28:40.880Z,915.7
2017-12-12T00:29:44.336Z,915.7
2017-12-12T00:30:47.586Z,915.7
2017-12-12T00:31:54.173Z,911.8
2017-12-12T00:32:57.834Z,915.7
2017-12-12T00:34:01.206Z,915.8
2017-12-12T00:35:04.754Z,915.8
2017-12-12T00:36:18.011Z,916.6
2017-12-12T00:37:37.667Z,915.8
2017-12-12T00:39:10.864Z,915.9
2017-12-12T00:40:14.315Z,915.9
2017-12-12T00:41:37.562Z,916.8
2017-12-12T00:42:50.850Z,916.7
2017-12-12T00:44:09.863Z,915.8
2017-12-12T00:45:23.143Z,915.9
2017-12-12T00:46:32.747Z,916.7
2017-12-12T00:47:36.105Z,916
2017-12-12T00:48:39.488Z,914.7
2017-12-12T00:49:46.738Z,916.7
2017-12-12T00:50:50.107Z,916.1
2017-12-12T00:52:13.507Z,916.8
2017-12-12T00:53:23.538Z,916
2017-12-12T00:54:27.639Z,916
2017-12-12T00:55:31.086Z,916
2017-12-12T00:56:34.482Z,916.2
2017-12-12T00:57:37.711Z,917
2017-12-12T00:58:41.096Z,916.1
2017-12-12T00:59:54.471Z,916.1
2017-12-12T01:01:16.389Z,916.1
2017-12-12T01:02:29.842Z,916.2
2017-12-12T01:03:43.234Z,916.2
2017-12-12T01:04:46.747Z,916.2
2017-12-12T01:05:52.904Z,916.2
2017-12-12T01:07:06.267Z,916.2
2017-12-12T01:08:09.701Z,916.3
2017-12-12T01:09:13.019Z,916.4
2017-12-12T01:10:17.222Z,916.3
2017-12-12T01:11:20.760Z,916.2
2017-12-12T01:12:27.810Z,916.2
2017-12-12T01:13:31.290Z,916.2
2017-12-12T01:14:34.786Z,916.3
2017-12-12T01:15:43.520Z,916.4
2017-12-12T01:17:05.209Z,916.3
2017-12-12T01:18:18.664Z,916.3
2017-12-12T01:19:22.103Z,916.3
2017-12-12T01:20:25.440Z,916.4
2017-12-12T01:21:30.979Z,916.3
2017-12-12T01:22:38.083Z,916.3
2017-12-12T01:24:05.930Z,916.3
2017-12-12T01:25:10.491Z,916.3
2017-12-12T01:26:14.071Z,916.3
2017-12-12T01:27:17.534Z,916.3
2017-12-12T01:28:22.307Z,916.4
2017-12-12T01:29:25.738Z,916.5
2017-12-12T01:30:29.185Z,916.6
2017-12-12T01:31:32.611Z,916.5
2017-12-12T01:32:35.991Z,916.5
2017-12-12T01:33:41.493Z,916.7
2017-12-12T01:34:50.508Z,916
2017-12-12T01:35:53.905Z,916.5
2017-12-12T01:36:57.426Z,916.6
2017-12-12T01:38:00.923Z,916.7
2017-12-12T01:39:04.922Z,916.7
2017-12-12T01:40:08.461Z,916.7
2017-12-12T01:41:12.843Z,916.7
2017-12-12T01:42:18.938Z,916.5
2017-12-12T01:43:23.783Z,916.5
2017-12-12T01:44:27.171Z,916.6
2017-12-12T01:45:34.843Z,917.5
2017-12-12T01:46:38.400Z,916.8
2017-12-12T01:47:44.881Z,916.8
2017-12-12T01:48:48.323Z,916.8
2017-12-12T01:49:52.413Z,912.9
2017-12-12T01:50:56.843Z,917.7
2017-12-12T01:52:11.749Z,916.8
2017-12-12T01:53:26.046Z,913.5
2017-12-12T01:54:40.429Z,917.5
2017-12-12T01:55:43.935Z,916.7
2017-12-12T01:56:52.005Z,916.7
2017-12-12T01:57:55.393Z,916.6
2017-12-12T01:58:58.840Z,916.7
2017-12-12T02:00:02.365Z,916.7
2017-12-12T02:01:05.781Z,916.8
2017-12-12T02:02:18.809Z,916.7
2017-12-12T02:03:22.154Z,917.5
2017-12-12T02:04:25.507Z,917.5
2017-12-12T02:05:28.875Z,912.8
2017-12-12T02:06:32.479Z,916.8
2017-12-12T02:07:40.450Z,916.9
2017-12-12T02:08:44.954Z,917
2017-12-12T02:09:48.329Z,916.8
2017-12-12T02:10:51.801Z,916.7
2017-12-12T02:11:55.226Z,916.8
2017-12-12T02:13:00.506Z,916.9
2017-12-12T02:14:33.791Z,916.9
2017-12-12T02:15:37.449Z,916.9
2017-12-12T02:16:40.733Z,917.7
2017-12-12T02:17:44.141Z,917
2017-12-12T02:18:51.652Z,917
2017-12-12T02:19:55.257Z,917
2017-12-12T02:20:58.559Z,916.9
2017-12-12T02:22:02.085Z,916.7
2017-12-12T02:23:05.454Z,917.2
2017-12-12T02:24:11.756Z,917.8
2017-12-12T02:25:15.313Z,917
2017-12-12T02:26:18.745Z,916.9
2017-12-12T02:27:33.829Z,917.6
2017-12-12T02:28:37.721Z,917.8
2017-12-12T02:29:48.463Z,917
2017-12-12T02:30:52.488Z,917
2017-12-12T02:31:58.345Z,916.8
2017-12-12T02:33:01.902Z,916.8
2017-12-12T02:34:05.282Z,916.9
2017-12-12T02:35:11.190Z,916.8
2017-12-12T02:36:27.565Z,916.8
2017-12-12T02:37:38.152Z,917.1
2017-12-12T02:38:45.004Z,917.3
2017-12-12T02:39:48.953Z,917.2
2017-12-12T02:41:10.401Z,916.9
2017-12-12T02:42:24.982Z,917
2017-12-12T02:43:46.227Z,918
2017-12-12T02:44:51.457Z,916.8
2017-12-12T02:45:55.498Z,916.9
2017-12-12T02:47:02.270Z,917
2017-12-12T02:48:06.209Z,918.1
2017-12-12T02:49:11.556Z,917.2
2017-12-12T02:50:16.579Z,917.1
2017-12-12T02:51:23.289Z,917.2
2017-12-12T02:52:50.962Z,917.3
2017-12-12T02:54:06.112Z,917.2
2017-12-12T02:55:20.054Z,917.2
2017-12-12T02:56:34.746Z,918.2
2017-12-12T02:57:52.718Z,917.5
2017-12-12T02:58:56.740Z,917.3
2017-12-12T03:00:00.671Z,917.1
2017-12-12T03:01:03.949Z,917.2
2017-12-12T03:02:27.815Z,917.2
2017-12-12T03:03:34.274Z,917.3
2017-12-12T03:04:45.737Z,917.3
2017-12-12T03:05:51.192Z,917.2
2017-12-12T03:06:57.159Z,917.3
2017-12-12T03:08:04.933Z,917.4
2017-12-12T03:09:10.417Z,917.4
2017-12-12T03:10:25.870Z,917.5
2017-12-12T03:11:29.765Z,917.6
2017-12-12T03:12:33.849Z,918.5
2017-12-12T03:13:48.135Z,917.6
2017-12-12T03:14:53.587Z,917.5
2017-12-12T03:15:59.898Z,917.5
2017-12-12T03:17:04.175Z,918.3
2017-12-12T03:18:08.310Z,917.4
2017-12-12T03:19:24.178Z,917.4
2017-12-12T03:20:40.321Z,917.4
2017-12-12T03:21:46.605Z,918.3
2017-12-12T03:22:51.244Z,917.6
2017-12-12T03:23:56.573Z,917.7
2017-12-12T03:25:00.042Z,917.6
2017-12-12T03:26:05.784Z,917.5
2017-12-12T03:27:22.180Z,917.6
2017-12-12T03:28:25.547Z,917.6
2017-12-12T03:29:29.445Z,917.7
2017-12-12T03:30:32.953Z,918.5
2017-12-12T03:31:36.223Z,917.7
2017-12-12T03:32:45.556Z,917.8
2017-12-12T03:34:01.685Z,917.8
2017-12-12T03:35:05.133Z,917.8
2017-12-12T03:36:09.031Z,917.8
2017-12-12T03:37:12.399Z,917.8
2017-12-12T03:38:30.054Z,917.8
2017-12-12T03:39:37.716Z,918.1
2017-12-12T03:40:43.168Z,917.9
2017-12-12T03:41:47.146Z,914.2
2017-12-12T03:42:54.679Z,917.8
2017-12-12T03:43:59.063Z,917.9
2017-12-12T03:45:15.217Z,917.9
2017-12-12T03:46:31.730Z,917.8
2017-12-12T03:47:47.281Z,918.6
2017-12-12T03:49:12.218Z,917.9
2017-12-12T03:50:19.734Z,917.8
2017-12-12T03:51:25.142Z,918
2017-12-12T03:52:31.502Z,918
2017-12-12T03:53:45.355Z,918.1
2017-12-12T03:55:00.060Z,918.1
2017-12-12T03:56:06.030Z,918.1
2017-12-12T03:57:09.382Z,918.2
2017-12-12T03:58:12.894Z,918.3
2017-12-12T03:59:16.929Z,918.2
2017-12-12T04:00:21.559Z,918.3
2017-12-12T04:01:28.492Z,918.3
2017-12-12T04:02:31.599Z,918.4
2017-12-12T04:03:39.017Z,918.4
2017-12-12T04:04:46.968Z,918.3
2017-12-12T04:05:50.375Z,918.3
2017-12-12T04:06:53.758Z,918.3
2017-12-12T04:07:57.310Z,918.3
2017-12-12T04:09:01.229Z,919.2
2017-12-12T04:10:07.381Z,918.3
2017-12-12T04:11:10.843Z,918.4
2017-12-12T04:12:19.808Z,918.5
2017-12-12T04:13:23.663Z,917.7
2017-12-12T04:14:27.663Z,918.4
2017-12-12T04:15:31.653Z,918.4
2017-12-12T04:16:36.208Z,918.5
2017-12-12T04:17:41.050Z,918.5
2017-12-12T04:18:47.310Z,918.5
2017-12-12T04:19:51.508Z,918.5
2017-12-12T04:20:57.042Z,918.6
2017-12-12T04:22:01.606Z,918.6
2017-12-12T04:23:11.032Z,918.7
2017-12-12T04:24:15.437Z,918.7
2017-12-12T04:25:21.544Z,918.7
2017-12-12T04:26:26.876Z,918.7
2017-12-12T04:27:32.904Z,918.7
2017-12-12T04:28:40.150Z,918.7
2017-12-12T04:29:43.610Z,915.5
2017-12-12T04:30:47.659Z,918.9
2017-12-12T04:31:51.067Z,919
2017-12-12T04:32:54.416Z,918.9
2017-12-12T04:34:01.266Z,919
2017-12-12T04:35:04.665Z,919
2017-12-12T04:36:08.090Z,919.1
2017-12-12T04:37:11.821Z,919.1
2017-12-12T04:38:15.143Z,919.2
2017-12-12T04:39:18.541Z,919.2
2017-12-12T04:40:22.041Z,920
2017-12-12T04:41:25.452Z,919.3
2017-12-12T04:42:29.189Z,919.3
2017-12-12T04:43:33.534Z,919.3
2017-12-12T04:44:39.431Z,919.3
2017-12-12T04:45:43.960Z,919.3
2017-12-12T04:46:49.210Z,919.3
2017-12-12T04:47:53.684Z,919.4
2017-12-12T04:48:57.955Z,919.5
2017-12-12T04:50:03.782Z,919.5
2017-12-12T04:51:09.715Z,919.6
2017-12-12T04:52:14.805Z,919.6
2017-12-12T04:53:21.349Z,919.5
2017-12-12T04:54:25.357Z,919.7
2017-12-12T04:55:35.325Z,919.7
2017-12-12T04:56:40.409Z,920.6
2017-12-12T04:57:46.094Z,919.7
2017-12-12T04:58:53.534Z,919.8
2017-12-12T04:59:59.500Z,920.7
2017-12-12T05:01:06.411Z,919.9
2017-12-12T05:02:12.518Z,919.9
2017-12-12T05:03:20.637Z,919.9
2017-12-12T05:04:25.246Z,919.9
2017-12-12T05:05:33.281Z,920
2017-12-12T05:06:44.809Z,919.9
2017-12-12T05:07:49.588Z,919.8
2017-12-12T05:08:59.049Z,919.8
2017-12-12T05:10:05.684Z,920.7
2017-12-12T05:11:13.674Z,920.7
2017-12-12T05:12:22.069Z,919.8
2017-12-12T05:13:29.841Z,920.8
2017-12-12T05:14:36.089Z,920
2017-12-12T05:15:45.337Z,920
2017-12-12T05:16:53.480Z,920.9
2017-12-12T05:18:03.455Z,920.1
2017-12-12T05:19:09.307Z,920.1
2017-12-12T05:20:18.875Z,920.2
2017-12-12T05:21:31.326Z,920.3
2017-12-12T05:22:39.802Z,920.3
2017-12-12T05:23:45.048Z,921.2
2017-12-12T05:24:55.853Z,920.4
2017-12-12T05:26:08.828Z,920.4
2017-12-12T05:27:13.426Z,920.5
2017-12-12T05:28:18.238Z,921.3
2017-12-12T05:29:36.860Z,920.5
2017-12-12T05:30:43.993Z,920.5
2017-12-12T05:31:51.785Z,920.5
2017-12-12T05:32:57.102Z,920.6
2017-12-12T05:34:02.165Z,920.7
2017-12-12T05:35:09.876Z,920.6
2017-12-12T05:36:14.019Z,920.8
2017-12-12T05:37:22.607Z,920.8
2017-12-12T05:38:27.178Z,920.8
2017-12-12T05:39:32.976Z,921
2017-12-12T05:40:43.479Z,921
2017-12-12T05:41:52.693Z,920.8
2017-12-12T05:42:59.080Z,921
2017-12-12T05:44:05.734Z,921
2017-12-12T05:45:12.856Z,921.1
2017-12-12T05:46:19.713Z,921.8
2017-12-12T05:47:26.021Z,920.9
2017-12-12T05:48:34.837Z,921
2017-12-12T05:49:41.783Z,921.8
2017-12-12T05:50:49.133Z,921
2017-12-12T05:52:05.125Z,921
2017-12-12T05:53:10.048Z,921.9
2017-12-12T05:54:18.983Z,921.2
2017-12-12T05:55:26.092Z,921.3
2017-12-12T05:56:30.042Z,921.3
2017-12-12T05:57:36.472Z,921.4
2017-12-12T05:58:44.799Z,921.4
2017-12-12T05:59:55.780Z,921.5
2017-12-12T06:01:07.046Z,921.4
2017-12-12T06:02:14.654Z,922.4
2017-12-12T06:03:35.359Z,921.6
2017-12-12T06:04:48.336Z,921.6
2017-12-12T06:05:58.678Z,921.7
2017-12-12T06:07:08.824Z,921.8
2017-12-12T06:08:18.146Z,922
2017-12-12T06:09:27.348Z,921.8
2017-12-12T06:10:35.774Z,922
2017-12-12T06:11:43.253Z,921.8
2017-12-12T06:12:54.831Z,921.9
2017-12-12T06:14:03.834Z,921.9
2017-12-12T06:15:24.483Z,922
2017-12-12T06:16:34.276Z,922.8
2017-12-12T06:17:41.461Z,922.1
2017-12-12T06:18:49.160Z,922.1
2017-12-12T06:20:02.140Z,922.1
2017-12-12T06:21:10.619Z,922.2
2017-12-12T06:22:24.512Z,922.2
2017-12-12T06:23:33.889Z,922.4
2017-12-12T06:24:46.684Z,922.4
2017-12-12T06:25:55.535Z,922.5
2017-12-12T06:27:05.987Z,922.5
2017-12-12T06:28:16.148Z,922.5
2017-12-12T06:29:26.585Z,922.5
2017-12-12T06:30:41.118Z,922.5
2017-12-12T06:31:49.216Z,922.5
2017-12-12T06:32:58.804Z,922.7
2017-12-12T06:34:09.944Z,922.6
2017-12-12T06:35:17.679Z,922.6
2017-12-12T06:36:29.471Z,922.8
2017-12-12T06:37:46.583Z,922.7
2017-12-12T06:39:08.749Z,922.8
2017-12-12T06:40:19.357Z,922.7
2017-12-12T06:41:31.273Z,922.8
2017-12-12T06:42:42.117Z,922.8
2017-12-12T06:43:49.690Z,922.9
2017-12-12T06:45:07.363Z,923
2017-12-12T06:46:23.119Z,923
2017-12-12T06:47:33.968Z,923
2017-12-12T06:48:50.326Z,923.8
2017-12-12T06:50:05.374Z,923.1
2017-12-12T06:51:38.445Z,923.1
2017-12-12T06:52:51.603Z,923.1
2017-12-12T06:53:59.722Z,920.5
2017-12-12T06:55:07.750Z,923.3
2017-12-12T06:56:11.530Z,923.4
2017-12-12T06:57:14.986Z,924.3
2017-12-12T06:58:27.461Z,923.5
2017-12-12T06:59:37.892Z,923.5
2017-12-12T07:00:45.330Z,923.5
2017-12-12T07:01:51.468Z,923.5
2017-12-12T07:03:01.424Z,923.5
2017-12-12T07:04:07.604Z,923.7
2017-12-12T07:05:13.537Z,923.7
2017-12-12T07:06:17.686Z,924.6
2017-12-12T07:07:21.076Z,923.7
2017-12-12T07:08:25.410Z,923.9
2017-12-12T07:09:29.828Z,924
2017-12-12T07:10:36.033Z,923.9
2017-12-12T07:11:39.560Z,923.9
2017-12-12T07:12:44.076Z,924.1
2017-12-12T07:13:51.004Z,924
2017-12-12T07:14:54.438Z,924
2017-12-12T07:15:58.404Z,924.1
2017-12-12T07:17:02.634Z,925.1
2017-12-12T07:18:06.641Z,925.1
2017-12-12T07:19:10.973Z,924.2
2017-12-12T07:20:15.036Z,924.3
2017-12-12T07:21:19.863Z,925.1
2017-12-12T07:22:24.665Z,924.1
2017-12-12T07:23:28.049Z,924.5
2017-12-12T07:24:36.646Z,924.5
2017-12-12T07:25:40.277Z,924.5
2017-12-12T07:26:43.688Z,924.5
2017-12-12T07:27:48.191Z,924.5
2017-12-12T07:28:51.553Z,924.6
2017-12-12T07:29:55.869Z,924.6
2017-12-12T07:31:02.327Z,924.7
2017-12-12T07:32:07.616Z,924.6
2017-12-12T07:33:11.743Z,924.7
2017-12-12T07:34:17.568Z,924.8
2017-12-12T07:35:26.856Z,924.8
2017-12-12T07:36:31.854Z,925.7
2017-12-12T07:37:36.983Z,925
2017-12-12T07:38:42.476Z,925
2017-12-12T07:39:46.499Z,925
2017-12-12T07:40:53.224Z,925.1
2017-12-12T07:42:00.568Z,925.1
2017-12-12T07:43:05.099Z,925.1
2017-12-12T07:44:09.105Z,925.2
2017-12-12T07:45:17.626Z,925.2
2017-12-12T07:46:28.919Z,925.2
2017-12-12T07:47:35.522Z,925.3
2017-12-12T07:48:43.219Z,925.4
2017-12-12T07:49:52.219Z,925.4
2017-12-12T07:50:58.481Z,925.4
2017-12-12T07:52:02.360Z,925.5
2017-12-12T07:53:12.326Z,925.5
2017-12-12T07:54:18.905Z,925.6
2017-12-12T07:55:24.367Z,925.5
2017-12-12T07:56:30.863Z,925.6
2017-12-12T07:57:44.788Z,925.7
2017-12-12T07:58:52.544Z,925.8
2017-12-12T08:00:00.240Z,926.7
2017-12-12T08:01:07.960Z,926
2017-12-12T08:02:18.731Z,925.9
2017-12-12T08:03:26.551Z,925.9
2017-12-12T08:04:35.653Z,926
2017-12-12T08:05:44.370Z,925.9
2017-12-12T08:06:54.340Z,926
2017-12-12T08:08:03.293Z,926
2017-12-12T08:09:15.932Z,926.1
2017-12-12T08:10:24.680Z,926.2
2017-12-12T08:11:38.961Z,926.1
2017-12-12T08:12:49.303Z,926.2
2017-12-12T08:13:59.516Z,926.3
2017-12-12T08:15:11.593Z,926.3
2017-12-12T08:16:19.734Z,926.2
2017-12-12T08:17:33.420Z,926.4
2017-12-12T08:18:46.093Z,926.4
2017-12-12T08:19:57.975Z,926.4
2017-12-12T08:21:22.032Z,927.6
2017-12-12T08:22:33.158Z,926.5
2017-12-12T08:23:45.351Z,926.6
2017-12-12T08:24:57.609Z,926.6
2017-12-12T08:26:08.300Z,926.7
2017-12-12T08:27:23.738Z,927.5
2017-12-12T08:28:35.822Z,926.7
2017-12-12T08:29:46.033Z,926.7
2017-12-12T08:31:02.794Z,927
2017-12-12T08:32:16.444Z,926.8
2017-12-12T08:33:42.532Z,922.7
2017-12-12T08:34:55.164Z,927
2017-12-12T08:36:08.617Z,927.8
2017-12-12T08:37:22.132Z,927.8
2017-12-12T08:38:38.555Z,927.1
2017-12-12T08:39:53.568Z,927.1
2017-12-12T08:41:05.075Z,927.1
2017-12-12T08:42:22.750Z,927.2
2017-12-12T08:43:35.909Z,927.1
2017-12-12T08:44:46.198Z,927.2
2017-12-12T08:46:04.793Z,927.2
2017-12-12T08:47:15.250Z,927.2
2017-12-12T08:48:36.714Z,927.2
2017-12-12T08:49:46.791Z,927.2
2017-12-12T08:51:00.040Z,927.2
2017-12-12T08:52:11.933Z,927.3
2017-12-12T08:53:20.851Z,927.3
2017-12-12T08:54:34.495Z,927.3
2017-12-12T08:55:47.373Z,927.5
2017-12-12T08:57:02.892Z,928
2017-12-12T08:58:24.657Z,927.6
2017-12-12T08:59:33.810Z,927.6
2017-12-12T09:00:51.378Z,927.7
2017-12-12T09:02:08.468Z,928.5
2017-12-12T09:03:24.284Z,927.8
2017-12-12T09:04:35.087Z,928.6
2017-12-12T09:05:51.633Z,927.8
2017-12-12T09:07:07.313Z,927.8
2017-12-12T09:08:20.656Z,927.9
2017-12-12T09:09:34.081Z,927.9
2017-12-12T09:11:02.983Z,928
2017-12-12T09:12:15.469Z,928.8
2017-12-12T09:13:32.270Z,927.9
2017-12-12T09:14:37.476Z,928
2017-12-12T09:15:56.119Z,928.9
2017-12-12T09:17:13.528Z,928.8
2017-12-12T09:18:28.567Z,928
2017-12-12T09:19:42.929Z,928.1
2017-12-12T09:20:59.189Z,928.1
2017-12-12T09:22:15.517Z,928.2
2017-12-12T09:23:41.396Z,928.2
2017-12-12T09:24:58.710Z,928.2
2017-12-12T09:26:14.085Z,928.2
2017-12-12T09:27:29.322Z,928.1
2017-12-12T09:28:43.396Z,928.2
2017-12-12T09:30:00.001Z,928.3
2017-12-12T09:31:13.257Z,928.3
2017-12-12T09:32:27.106Z,928.3
2017-12-12T09:33:41.688Z,928.2
2017-12-12T09:34:55.386Z,928.2
2017-12-12T09:36:24.021Z,928.2
2017-12-12T09:37:42.768Z,928.3
2017-12-12T09:38:59.952Z,928.3
2017-12-12T09:40:17.293Z,928.3
2017-12-12T09:41:34.394Z,928.4
2017-12-12T09:42:44.597Z,928.3
2017-12-12T09:44:02.959Z,928.4
2017-12-12T09:45:11.415Z,928.4
2017-12-12T09:46:19.176Z,928.4
2017-12-12T09:47:34.506Z,929.4
2017-12-12T09:48:51.514Z,928.5
2017-12-12T09:50:08.881Z,928.5
2017-12-12T09:51:25.320Z,928.5
2017-12-12T09:52:35.849Z,928.6
2017-12-12T09:53:39.300Z,928.5
2017-12-12T09:54:42.768Z,928.6
2017-12-12T09:55:46.805Z,928.6
2017-12-12T09:56:51.606Z,929.6
2017-12-12T09:57:54.934Z,928.7
2017-12-12T09:58:58.313Z,929.6
2017-12-12T10:00:06.874Z,928.8
2017-12-12T10:01:10.326Z,928.9
2017-12-12T10:02:13.835Z,928.8
2017-12-12T10:03:17.819Z,928.8
2017-12-12T10:04:22.042Z,928.9
2017-12-12T10:05:25.505Z,928.9
2017-12-12T10:06:30.314Z,928.9
2017-12-12T10:07:34.005Z,929.7
2017-12-12T10:08:38.525Z,928.9
2017-12-12T10:09:42.126Z,929
2017-12-12T10:10:50.221Z,928.9
2017-12-12T10:11:53.807Z,929.8
2017-12-12T10:12:58.196Z,929
2017-12-12T10:14:03.344Z,929.1
2017-12-12T10:15:09.866Z,929
2017-12-12T10:16:14.608Z,929
2017-12-12T10:17:19.301Z,929.8
2017-12-12T10:18:23.590Z,928.9
2017-12-12T10:19:28.046Z,928.9
2017-12-12T10:20:31.551Z,929
2017-12-12T10:21:44.116Z,929
2017-12-12T10:22:49.422Z,929.1
2017-12-12T10:23:54.715Z,929
2017-12-12T10:25:00.699Z,929.1
2017-12-12T10:26:06.576Z,929.2
2017-12-12T10:27:10.260Z,929.2
2017-12-12T10:28:16.789Z,929.1
2017-12-12T10:29:21.147Z,929.1
2017-12-12T10:30:26.610Z,929.1
2017-12-12T10:31:32.829Z,929.1
2017-12-12T10:32:47.127Z,929.1
2017-12-12T10:33:54.391Z,929
2017-12-12T10:35:00.817Z,929.1
2017-12-12T10:36:08.348Z,929
2017-12-12T10:37:18.056Z,929.1
2017-12-12T10:38:25.360Z,929.5
2017-12-12T10:39:32.300Z,929.2
2017-12-12T10:40:37.727Z,929.2
2017-12-12T10:41:47.513Z,929.2
2017-12-12T10:42:56.258Z,929.1
2017-12-12T10:44:14.700Z,929.2
2017-12-12T10:45:24.015Z,929.1
2017-12-12T10:46:35.970Z,929.1
2017-12-12T10:47:48.235Z,929.1
2017-12-12T10:48:59.805Z,929.2
2017-12-12T10:50:12.796Z,929.2
2017-12-12T10:51:23.701Z,929.2
2017-12-12T10:52:30.967Z,929.2
2017-12-12T10:53:44.351Z,929.3
2017-12-12T10:54:58.487Z,929.3
2017-12-12T10:56:22.467Z,929.3
2017-12-12T10:57:46.060Z,929.3
2017-12-12T10:58:58.090Z,929.4
2017-12-12T11:00:09.404Z,929.4
2017-12-12T11:01:23.140Z,929.5
2017-12-12T11:02:37.603Z,929.5
2017-12-12T11:03:51.814Z,929.4
2017-12-12T11:05:06.996Z,930.3
2017-12-12T11:06:22.081Z,929.4
2017-12-12T11:07:34.679Z,929.5
2017-12-12T11:08:59.324Z,929.6
2017-12-12T11:10:18.165Z,929.4
2017-12-12T11:11:38.101Z,929.4
2017-12-12T11:12:55.064Z,929.3
2017-12-12T11:14:06.935Z,929.4
2017-12-12T11:15:21.007Z,929.3
2017-12-12T11:16:34.311Z,929.4
2017-12-12T11:17:57.727Z,929.4
2017-12-12T11:19:20.754Z,929.4
2017-12-12T11:20:40.581Z,930.2
2017-12-12T11:22:13.329Z,929.4
2017-12-12T11:23:23.486Z,929.4
2017-12-12T11:24:38.900Z,929.5
2017-12-12T11:25:58.207Z,929.4
2017-12-12T11:27:20.499Z,930.3
2017-12-12T11:28:40.079Z,929.6
2017-12-12T11:29:52.832Z,929.6
2017-12-12T11:30:58.198Z,929.5
2017-12-12T11:32:27.936Z,929.6
2017-12-12T11:33:42.466Z,929.6
2017-12-12T11:35:23.891Z,929.7
2017-12-12T11:36:43.360Z,930.5
2017-12-12T11:38:03.544Z,929.7
2017-12-12T11:39:16.705Z,926.2
2017-12-12T11:40:39.254Z,929.7
2017-12-12T11:42:00.178Z,929.9
2017-12-12T11:43:11.719Z,929.7
2017-12-12T11:44:22.419Z,929.7
2017-12-12T11:45:40.457Z,930.6
2017-12-12T11:46:53.948Z,929.8
2017-12-12T11:48:23.697Z,929.8
2017-12-12T11:49:41.660Z,929.8
2017-12-12T11:51:06.356Z,930
2017-12-12T11:52:25.222Z,925.8
2017-12-12T11:53:42.823Z,930
2017-12-12T11:54:56.722Z,929.8
2017-12-12T11:56:19.671Z,929.8
2017-12-12T11:57:40.428Z,929.8
2017-12-12T11:58:51.290Z,926.2
2017-12-12T12:00:10.688Z,929.8
2017-12-12T12:01:39.609Z,929.8
2017-12-12T12:03:03.568Z,929.8
2017-12-12T12:04:18.337Z,929.9
2017-12-12T12:05:35.523Z,930.7
2017-12-12T12:06:49.423Z,930
2017-12-12T12:08:05.951Z,930
2017-12-12T12:09:24.129Z,930
2017-12-12T12:10:40.400Z,930.9
2017-12-12T12:11:53.595Z,930
2017-12-12T12:13:11.884Z,930.2
2017-12-12T12:14:49.677Z,930.1
2017-12-12T12:16:01.159Z,930.1
2017-12-12T12:17:13.859Z,930.1
2017-12-12T12:18:32.861Z,930
2017-12-12T12:19:44.001Z,930.1
2017-12-12T12:20:56.864Z,930.3
2017-12-12T12:22:11.678Z,930.1
2017-12-12T12:23:18.386Z,930.1
2017-12-12T12:24:34.270Z,930.1
2017-12-12T12:25:48.200Z,930.1
2017-12-12T12:27:07.385Z,930.1
2017-12-12T12:28:25.454Z,930.1
2017-12-12T12:29:42.799Z,930.1
2017-12-12T12:30:53.104Z,930.1
2017-12-12T12:32:01.586Z,930.1
2017-12-12T12:33:07.081Z,930.1
2017-12-12T12:34:10.516Z,930.1
2017-12-12T12:35:24.644Z,930.3
2017-12-12T12:36:28.038Z,930.2
2017-12-12T12:37:36.510Z,930.2
2017-12-12T12:38:43.903Z,930.2
2017-12-12T12:39:47.391Z,930.2
2017-12-12T12:40:50.813Z,930.2
2017-12-12T12:41:54.904Z,930.2
2017-12-12T12:42:59.154Z,930.2
2017-12-12T12:44:04.921Z,930.3
2017-12-12T12:45:11.642Z,930.3
2017-12-12T12:46:15.351Z,931.1
2017-12-12T12:47:19.584Z,930.3
2017-12-12T12:48:23.877Z,930.4
2017-12-12T12:49:33.401Z,930.3
2017-12-12T12:50:37.534Z,930.4
2017-12-12T12:51:43.303Z,930.4
2017-12-12T12:52:46.725Z,930.5
2017-12-12T12:53:50.835Z,930.5
2017-12-12T12:54:56.120Z,930.4
2017-12-12T12:56:01.464Z,930.5
2017-12-12T12:57:05.381Z,930.4
2017-12-12T12:58:11.021Z,930.3
2017-12-12T12:59:15.928Z,930.4
2017-12-12T13:00:26.604Z,930.3
2017-12-12T13:01:30.939Z,931.3
2017-12-12T13:02:36.454Z,930.4
2017-12-12T13:03:42.600Z,930.4
2017-12-12T13:04:46.721Z,930.4
2017-12-12T13:05:54.206Z,930.4
2017-12-12T13:07:00.133Z,930.4
2017-12-12T13:08:05.077Z,930.4
2017-12-12T13:09:09.880Z,930.4
2017-12-12T13:10:20.146Z,930.5
2017-12-12T13:11:29.360Z,930.5
2017-12-12T13:12:35.194Z,931.3
2017-12-12T13:13:45.872Z,929.5
2017-12-12T13:14:53.383Z,930.5
2017-12-12T13:16:03.553Z,931.2
2017-12-12T13:17:11.910Z,930.4
2017-12-12T13:18:18.565Z,930.6
2017-12-12T13:19:28.296Z,930.5
2017-12-12T13:20:37.674Z,930.5
2017-12-12T13:21:50.976Z,930.5
2017-12-12T13:23:06.307Z,930.4
2017-12-12T13:24:19.863Z,930.5
2017-12-12T13:25:29.949Z,930.5
2017-12-12T13:26:36.064Z,930.6
2017-12-12T13:27:44.391Z,931.5
2017-12-12T13:28:52.509Z,930.6
2017-12-12T13:30:02.972Z,930.7
2017-12-12T13:31:09.295Z,930.6
2017-12-12T13:32:26.376Z,930.7
2017-12-12T13:33:46.424Z,930.6
2017-12-12T13:35:06.136Z,930.7
2017-12-12T13:36:12.797Z,930.7
2017-12-12T13:37:18.612Z,930.7
2017-12-12T13:38:26.199Z,930.6
2017-12-12T13:39:35.917Z,927.2
2017-12-12T13:40:48.084Z,930.7
2017-12-12T13:42:06.056Z,930.7
2017-12-12T13:43:14.393Z,930.7
2017-12-12T13:44:37.818Z,930.8
2017-12-12T13:45:56.584Z,930.9
2017-12-12T13:47:15.111Z,930.8
2017-12-12T13:48:31.302Z,930.8
2017-12-12T13:49:45.028Z,930.8
2017-12-12T13:50:58.694Z,930.8
2017-12-12T13:52:14.897Z,930.8
2017-12-12T13:53:38.199Z,930.9
2017-12-12T13:54:45.346Z,930.9
2017-12-12T13:55:51.936Z,930.9
2017-12-12T13:57:05.551Z,930.9
2017-12-12T13:58:19.397Z,931.7
2017-12-12T13:59:49.348Z,931
2017-12-12T14:01:00.091Z,931.9
2017-12-12T14:02:17.944Z,931
2017-12-12T14:03:33.400Z,931
2017-12-12T14:04:47.659Z,931.9
2017-12-12T14:05:59.755Z,931.1
2017-12-12T14:07:15.748Z,931.1
2017-12-12T14:08:26.430Z,931.2
2017-12-12T14:09:34.062Z,932.1
2017-12-12T14:10:40.376Z,931.3
2017-12-12T14:12:05.292Z,931.3
2017-12-12T14:13:19.093Z,931.3
2017-12-12T14:14:29.954Z,931.3
2017-12-12T14:15:40.370Z,931.3
2017-12-12T14:16:50.724Z,931.3
2017-12-12T14:18:05.125Z,931.3
2017-12-12T14:19:14.974Z,931.3
2017-12-12T14:20:39.223Z,931.3
2017-12-12T14:21:55.163Z,931.4
2017-12-12T14:23:06.605Z,931.3
2017-12-12T14:24:28.442Z,931.3
2017-12-12T14:25:41.837Z,932.1
2017-12-12T14:26:52.340Z,931.3
2017-12-12T14:28:07.927Z,931.3
2017-12-12T14:29:19.321Z,931.3
2017-12-12T14:30:38.014Z,931.4
2017-12-12T14:31:53.681Z,931.5
2017-12-12T14:33:04.379Z,931.5
2017-12-12T14:34:21.490Z,932.3
2017-12-12T14:35:34.454Z,931.5
2017-12-12T14:36:44.314Z,931.5
2017-12-12T14:37:51.566Z,931.6
2017-12-12T14:39:02.125Z,932.4
2017-12-12T14:40:11.055Z,931.5
2017-12-12T14:41:19.027Z,931.6
2017-12-12T14:42:26.158Z,932.5
2017-12-12T14:43:32.375Z,931.7
2017-12-12T14:44:40.701Z,931.7
2017-12-12T14:45:49.068Z,931.7
2017-12-12T14:46:59.478Z,931.7
2017-12-12T14:48:14.473Z,931.6
2017-12-12T14:49:18.755Z,931.7
2017-12-12T14:50:22.671Z,931.6
2017-12-12T14:51:27.338Z,931.7
2017-12-12T14:52:30.959Z,931.6
2017-12-12T14:53:39.875Z,931.6
2017-12-12T14:54:47.265Z,931.6
2017-12-12T14:55:50.635Z,931.6
2017-12-12T14:56:56.438Z,931.7
2017-12-12T14:58:02.522Z,931.6
2017-12-12T14:59:10.388Z,931.7
2017-12-12T15:00:15.550Z,931.6
2017-12-12T15:01:21.021Z,931.6
2017-12-12T15:02:25.851Z,931.1